TAG weather

Tagbilaran Airport
Tagbilaran City, Bohol Province, Philippines

Public forecast

Using degrees Celsius for public forecast. Weather courtesy of forecast.io.

Closest aviation weather report (METAR) to Tagbilaran Airport

Report is more than 2 hours old.

Closest report is Sibulan Airport, 38.4 nm (71.0 km) WSW. Retrieved 2020/07/04 12:00 UTC (4 hours ago):

RPVD 041200Z 00000KT 9999 -SHRA FEW015 BKN070 27/25 Q1011 RMK A2985

Closest aviation forecast (TAF) to Tagbilaran Airport

Closest forecast is Sibulan Airport, 38.4 nm (71.0 km) WSW. Retrieved 2020/07/04 12:00 UTC (4 hours ago):

TAF RPVD 041100Z 0412/0512 14006KT 9999 FEW015 BKN220 TEMPO 0412/0418 07010KT 9000 TSRA FEW014CB FEW015 BKN070 TEMPO 0418/0424 11010KT -SHRA FEW014CB FEW015 BKN220